Time;durP1;ratioP1;P1;durP2;ratioP2;P2;SDS_P1;SDS_P2;PMS_P1;PMS_P2;Temp;Humidity;BMP_temperature;BMP_pressure;BME280_temperature;BME280_humidity;BME280_pressure;Samples;Min_cycle;Max_cycle;Signal;HPM_P1;HPM_P2
2022/11/14 00:00:40;;;;;;;11.23;10.13;;;4.90;99.90;;;;;;5009664;28;20185;-64
2022/11/14 00:03:07;;;;;;;13.90;10.45;;;4.90;99.90;;;;;;5007122;28;20206;-65
2022/11/14 00:05:37;;;;;;;14.57;11.38;;;4.70;99.90;;;;;;5021951;28;20226;-64
2022/11/14 00:08:03;;;;;;;13.35;10.95;;;4.70;99.90;;;;;;5013551;28;20195;-65
2022/11/14 00:10:28;;;;;;;13.53;11.20;;;4.70;99.90;;;;;;5009477;28;20189;-65
2022/11/14 00:12:54;;;;;;;12.83;9.80;;;4.80;99.90;;;;;;5010276;28;20565;-64
2022/11/14 00:15:19;;;;;;;14.07;11.43;;;4.80;99.90;;;;;;5004435;28;20544;-65
2022/11/14 00:17:45;;;;;;;14.07;10.70;;;4.60;99.90;;;;;;5009116;28;20180;-65
2022/11/14 00:20:12;;;;;;;13.27;10.87;;;4.50;99.90;;;;;;5023922;28;20195;-64
2022/11/14 00:22:37;;;;;;;13.80;10.98;;;4.90;99.90;;;;;;5015681;28;20651;-65
2022/11/14 00:25:04;;;;;;;11.47;9.97;;;4.50;99.90;;;;;;5009823;28;20242;-65
2022/11/14 00:27:29;;;;;;;12.40;10.02;;;4.60;99.90;;;;;;5012108;28;20228;-64
2022/11/14 00:29:55;;;;;;;13.30;10.90;;;4.60;99.90;;;;;;5005246;28;20593;-64
2022/11/14 00:32:21;;;;;;;14.13;10.00;;;4.90;99.90;;;;;;5010906;28;20720;-64
2022/11/14 00:34:47;;;;;;;11.35;10.18;;;4.80;99.90;;;;;;5016964;28;20177;-64
2022/11/14 00:37:13;;;;;;;13.20;10.20;;;4.80;99.90;;;;;;5011153;28;20969;-64
2022/11/14 00:39:39;;;;;;;13.23;10.03;;;4.80;99.90;;;;;;5009807;28;20192;-64
2022/11/14 00:42:04;;;;;;;11.53;10.33;;;4.70;99.90;;;;;;5015827;28;20221;-66
2022/11/14 00:44:30;;;;;;;10.77;9.30;;;4.60;99.90;;;;;;5014901;28;20201;-65
2022/11/14 00:46:56;;;;;;;12.40;9.37;;;4.40;99.90;;;;;;5010651;28;20991;-66
2022/11/14 00:49:21;;;;;;;12.13;9.97;;;4.60;99.90;;;;;;5013324;28;20195;-64
2022/11/14 00:51:47;;;;;;;11.63;9.60;;;4.50;99.90;;;;;;5012225;28;20232;-64
2022/11/14 00:54:13;;;;;;;11.93;9.10;;;;;;;;;;5013117;28;20244;-63
2022/11/14 00:56:39;;;;;;;10.80;9.70;;;4.70;99.90;;;;;;5012264;28;20188;-64
2022/11/14 00:59:04;;;;;;;12.33;9.83;;;4.50;99.90;;;;;;5027642;28;20273;-64
2022/11/14 01:01:30;;;;;;;12.40;9.27;;;4.60;99.90;;;;;;5011233;28;20589;-64
2022/11/14 01:03:56;;;;;;;11.23;9.13;;;4.50;99.90;;;;;;5012434;28;20209;-64
2022/11/14 01:06:21;;;;;;;12.43;9.83;;;4.40;99.90;;;;;;5027213;28;20271;-64
2022/11/14 01:08:50;;;;;;;11.50;9.90;;;4.30;99.90;;;;;;5012935;28;20181;-65
2022/11/14 01:11:19;;;;;;;12.60;10.10;;;4.30;99.90;;;;;;5013009;28;20184;-64
2022/11/14 01:13:45;;;;;;;11.93;10.57;;;4.10;99.90;;;;;;5011801;28;20302;-63
2022/11/14 01:16:10;;;;;;;12.20;10.27;;;4.40;99.90;;;;;;5012555;28;20184;-64
2022/11/14 01:18:37;;;;;;;11.73;10.33;;;4.20;99.90;;;;;;5012528;28;20529;-64
2022/11/14 01:21:06;;;;;;;11.35;9.77;;;4.20;99.90;;;;;;5008070;28;20181;-64
2022/11/14 01:23:32;;;;;;;12.48;10.15;;;4.20;99.90;;;;;;5010801;28;20204;-63
2022/11/14 01:26:07;;;;;;;11.43;9.23;;;4.30;99.90;;;;;;5012252;28;20231;-64
2022/11/14 01:28:33;;;;;;;12.15;9.85;;;4.30;99.90;;;;;;5011860;28;20211;-64
2022/11/14 01:31:12;;;;;;;10.85;9.50;;;4.70;99.90;;;;;;5012202;28;20217;-64
2022/11/14 01:33:38;;;;;;;9.70;8.68;;;4.40;99.90;;;;;;5024813;28;20734;-65
2022/11/14 01:36:05;;;;;;;9.93;8.30;;;4.10;99.90;;;;;;5016682;28;20310;-66
2022/11/14 01:38:30;;;;;;;10.27;9.18;;;4.30;99.90;;;;;;5011688;28;20784;-64
2022/11/14 01:40:56;;;;;;;11.50;9.33;;;4.50;99.90;;;;;;5011519;28;20665;-65
2022/11/14 01:43:31;;;;;;;11.70;8.83;;;4.60;99.90;;;;;;5011623;28;20241;-63
2022/11/14 01:46:09;;;;;;;9.85;8.73;;;4.50;99.90;;;;;;5009479;28;20196;-63
2022/11/14 01:48:46;;;;;;;10.50;8.85;;;4.30;99.90;;;;;;5011819;28;20548;-63
2022/11/14 01:51:24;;;;;;;11.60;9.48;;;4.30;99.90;;;;;;5011367;28;20597;-66
2022/11/14 01:53:53;;;;;;;11.32;9.38;;;4.30;99.90;;;;;;5011994;28;20199;-63
2022/11/14 01:56:27;;;;;;;11.82;9.60;;;4.30;99.90;;;;;;5011669;28;20701;-63
2022/11/14 01:59:01;;;;;;;11.57;10.05;;;4.10;99.90;;;;;;5008232;28;20190;-64
2022/11/14 02:01:31;;;;;;;13.82;10.63;;;4.00;99.90;;;;;;5011093;28;20191;-63
2022/11/14 02:03:58;;;;;;;12.30;9.55;;;4.30;99.90;;;;;;5007670;28;20202;-63
2022/11/14 02:06:27;;;;;;;11.77;8.85;;;3.70;99.90;;;;;;5001134;28;20188;-63
2022/11/14 02:08:55;;;;;;;11.57;9.77;;;4.20;99.90;;;;;;5019869;28;20553;-64
2022/11/14 02:11:21;;;;;;;10.73;8.82;;;4.50;99.90;;;;;;5014858;28;20644;-64
2022/11/14 02:13:46;;;;;;;10.50;8.67;;;4.80;99.90;;;;;;5019477;28;20214;-64
2022/11/14 02:16:12;;;;;;;13.33;10.20;;;4.70;99.90;;;;;;5015403;28;20435;-65
2022/11/14 02:18:38;;;;;;;10.83;9.57;;;4.90;99.90;;;;;;5021118;28;20423;-65
2022/11/14 02:21:04;;;;;;;11.53;9.60;;;4.90;99.90;;;;;;5012751;28;20447;-65
2022/11/14 02:23:31;;;;;;;11.87;9.73;;;4.90;99.90;;;;;;5017602;28;20216;-64
2022/11/14 02:25:57;;;;;;;12.48;10.60;;;5.10;99.90;;;;;;5014570;28;20490;-65
2022/11/14 02:28:23;;;;;;;13.25;11.02;;;5.00;99.90;;;;;;5010055;28;20589;-65
2022/11/14 02:30:49;;;;;;;11.77;9.10;;;5.40;99.90;;;;;;5008803;28;20198;-64
2022/11/14 02:33:15;;;;;;;12.23;10.32;;;5.30;99.90;;;;;;5008128;28;20214;-64
2022/11/14 02:35:41;;;;;;;13.88;10.68;;;5.50;99.90;;;;;;5009587;28;20622;-64
2022/11/14 02:38:07;;;;;;;13.97;9.80;;;5.20;99.90;;;;;;5009987;28;20185;-64
2022/11/14 02:40:32;;;;;;;14.53;11.47;;;5.20;99.90;;;;;;5010828;28;20459;-63
2022/11/14 02:42:58;;;;;;;11.37;9.40;;;5.20;99.90;;;;;;5013808;28;20212;-63
2022/11/14 02:45:24;;;;;;;11.47;9.53;;;5.00;99.90;;;;;;5011180;28;20553;-63
2022/11/14 02:47:50;;;;;;;10.38;9.27;;;5.20;99.90;;;;;;5018472;28;20218;-64
2022/11/14 02:50:16;;;;;;;11.53;9.33;;;5.30;99.90;;;;;;5011952;28;20193;-63
2022/11/14 02:52:42;;;;;;;11.10;9.50;;;5.00;99.90;;;;;;5017739;28;20466;-63
2022/11/14 02:55:09;;;;;;;11.73;8.60;;;4.80;99.90;;;;;;5011915;28;20177;-63
2022/11/14 02:57:34;;;;;;;11.73;8.82;;;4.80;99.90;;;;;;5015385;28;20474;-63
2022/11/14 03:00:00;;;;;;;12.70;10.90;;;5.00;99.90;;;;;;5012253;28;20188;-63
2022/11/14 03:02:26;;;;;;;12.03;10.20;;;5.00;99.90;;;;;;5009202;28;20201;-64
2022/11/14 03:04:52;;;;;;;12.40;9.50;;;4.60;99.90;;;;;;5009053;28;20251;-63
2022/11/14 03:07:17;;;;;;;12.43;9.90;;;5.00;99.90;;;;;;5010503;28;20292;-63
2022/11/14 03:09:43;;;;;;;11.40;9.57;;;4.80;99.90;;;;;;5010742;28;20440;-64
2022/11/14 03:12:09;;;;;;;10.27;9.13;;;5.00;99.90;;;;;;5010265;28;20210;-64
2022/11/14 03:14:35;;;;;;;12.95;9.82;;;5.10;99.90;;;;;;5021587;28;20179;-64
2022/11/14 03:17:01;;;;;;;11.47;9.43;;;5.30;99.90;;;;;;5010312;28;21185;-64
2022/11/14 03:19:26;;;;;;;10.43;9.03;;;5.10;99.90;;;;;;4998234;28;20178;-64
2022/11/14 03:21:52;;;;;;;11.83;9.20;;;5.00;99.90;;;;;;5005028;28;20463;-64
2022/11/14 03:24:18;;;;;;;11.17;8.40;;;5.20;99.90;;;;;;5011924;28;20197;-64
2022/11/14 03:26:43;;;;;;;9.90;8.90;;;5.20;99.90;;;;;;5009728;28;20677;-63
2022/11/14 03:29:09;;;;;;;11.70;9.53;;;5.00;99.90;;;;;;5012428;28;20188;-64
2022/11/14 03:31:35;;;;;;;9.77;8.50;;;4.90;99.90;;;;;;5011142;28;20249;-64
2022/11/14 03:34:00;;;;;;;11.77;10.17;;;5.00;99.90;;;;;;5012692;28;20196;-64
2022/11/14 03:36:26;;;;;;;12.70;9.40;;;5.10;99.90;;;;;;5011184;28;20186;-64
2022/11/14 03:38:52;;;;;;;11.70;9.80;;;5.10;99.90;;;;;;5009744;28;20181;-64
2022/11/14 03:41:17;;;;;;;10.83;9.50;;;5.00;99.90;;;;;;5010968;28;20541;-64
2022/11/14 03:43:43;;;;;;;12.23;9.73;;;4.80;99.90;;;;;;5010153;28;20733;-64
2022/11/14 03:46:09;;;;;;;13.47;10.77;;;4.70;99.90;;;;;;5004890;28;20220;-63
2022/11/14 03:48:34;;;;;;;12.13;9.30;;;4.90;99.90;;;;;;5011838;28;20219;-64
2022/11/14 03:51:00;;;;;;;11.83;8.73;;;4.80;99.90;;;;;;5008860;28;20184;-63
2022/11/14 03:53:27;;;;;;;10.73;8.93;;;4.80;99.90;;;;;;5010397;28;20208;-63
2022/11/14 03:55:52;;;;;;;12.20;9.23;;;4.70;99.90;;;;;;5009050;28;20188;-64
2022/11/14 03:58:18;;;;;;;11.93;9.33;;;4.60;99.90;;;;;;5009445;28;20199;-63
2022/11/14 04:00:44;;;;;;;11.30;9.27;;;4.80;99.90;;;;;;5005794;28;20186;-63
2022/11/14 04:03:09;;;;;;;9.90;8.70;;;4.20;99.90;;;;;;5025237;28;20291;-64
2022/11/14 04:05:35;;;;;;;10.97;8.87;;;4.70;99.90;;;;;;5009036;28;20600;-63
2022/11/14 04:08:04;;;;;;;10.03;8.57;;;4.80;99.90;;;;;;5014063;28;20212;-64
2022/11/14 04:10:30;;;;;;;10.73;9.05;;;4.90;99.90;;;;;;5006584;28;20173;-64
2022/11/14 04:12:55;;;;;;;10.03;8.87;;;5.00;99.90;;;;;;5012690;28;20540;-63
2022/11/14 04:15:21;;;;;;;10.37;9.27;;;4.90;99.90;;;;;;5011008;28;20253;-63
2022/11/14 04:17:47;;;;;;;11.53;8.37;;;5.10;99.90;;;;;;5015960;28;20194;-63
2022/11/14 04:20:14;;;;;;;9.80;8.20;;;5.00;99.90;;;;;;5011710;28;20206;-63
2022/11/14 04:22:40;;;;;;;10.02;8.40;;;4.90;99.90;;;;;;5014086;28;20212;-63
2022/11/14 04:25:07;;;;;;;11.20;9.43;;;5.10;99.90;;;;;;5032770;28;20182;-63
2022/11/14 04:27:33;;;;;;;12.00;9.20;;;5.00;99.90;;;;;;5015070;28;20235;-63
2022/11/14 04:29:58;;;;;;;8.50;7.47;;;5.00;99.90;;;;;;5012010;28;20871;-64
2022/11/14 04:32:24;;;;;;;9.53;8.20;;;5.10;99.90;;;;;;5004222;28;20199;-64
2022/11/14 04:34:50;;;;;;;9.23;7.70;;;5.30;99.90;;;;;;5016038;28;20191;-64
2022/11/14 04:37:15;;;;;;;9.27;7.60;;;5.40;99.90;;;;;;5012944;28;20275;-63
2022/11/14 04:39:41;;;;;;;8.57;7.63;;;5.40;99.90;;;;;;5013033;28;20193;-63
2022/11/14 04:42:06;;;;;;;8.77;7.23;;;5.60;99.90;;;;;;5016702;28;20229;-63
2022/11/14 04:44:32;;;;;;;9.27;8.33;;;5.30;99.90;;;;;;5009925;28;20291;-63
2022/11/14 04:46:58;;;;;;;9.03;8.13;;;5.30;99.90;;;;;;5010809;28;20226;-64
2022/11/14 04:49:23;;;;;;;8.77;7.87;;;5.50;99.90;;;;;;5014083;28;20191;-63
2022/11/14 04:51:49;;;;;;;8.90;8.00;;;5.40;99.90;;;;;;5005086;28;20198;-63
2022/11/14 04:54:15;;;;;;;9.40;7.97;;;5.30;99.90;;;;;;5017448;28;20598;-64
2022/11/14 04:56:41;;;;;;;10.90;9.40;;;5.50;99.90;;;;;;5015163;28;20673;-64
2022/11/14 04:59:06;;;;;;;8.33;7.53;;;5.50;99.90;;;;;;5013079;28;20238;-64
2022/11/14 05:01:32;;;;;;;8.60;7.60;;;5.30;99.90;;;;;;5012652;28;20445;-64
2022/11/14 05:03:57;;;;;;;8.87;7.03;;;5.60;99.90;;;;;;5012485;28;20254;-64
2022/11/14 05:06:23;;;;;;;8.57;7.57;;;5.60;99.90;;;;;;5013581;28;20185;-64
2022/11/14 05:08:49;;;;;;;10.10;8.63;;;5.40;99.90;;;;;;5013249;28;20181;-63
2022/11/14 05:11:15;;;;;;;9.70;7.43;;;4.80;99.90;;;;;;5012052;28;20222;-64
2022/11/14 05:13:41;;;;;;;9.90;8.05;;;5.40;99.90;;;;;;5012371;28;20228;-64
2022/11/14 05:16:07;;;;;;;9.70;8.70;;;5.60;99.90;;;;;;5013746;28;20201;-64
2022/11/14 05:18:33;;;;;;;8.30;7.50;;;5.40;99.90;;;;;;5010144;28;20187;-64
2022/11/14 05:21:00;;;;;;;10.50;8.20;;;5.30;99.90;;;;;;5011182;28;20451;-64
2022/11/14 05:23:26;;;;;;;8.57;7.65;;;5.40;99.90;;;;;;5011225;28;20219;-64
2022/11/14 05:26:06;;;;;;;9.38;8.02;;;5.70;99.90;;;;;;5007869;28;20222;-64
2022/11/14 05:28:32;;;;;;;9.32;7.75;;;5.70;99.90;;;;;;5012694;28;20569;-64
2022/11/14 05:31:06;;;;;;;9.37;7.60;;;5.60;99.90;;;;;;5010137;28;20277;-64
2022/11/14 05:33:34;;;;;;;9.45;8.48;;;5.50;99.90;;;;;;5012671;28;20946;-64
2022/11/14 05:36:04;;;;;;;11.85;9.00;;;5.60;99.90;;;;;;5010636;28;20195;-65
2022/11/14 05:38:30;;;;;;;9.50;8.32;;;5.50;99.90;;;;;;5010198;28;20208;-65
2022/11/14 05:40:56;;;;;;;9.80;8.37;;;5.40;99.90;;;;;;5010801;28;20191;-65
2022/11/14 05:43:22;;;;;;;9.17;8.23;;;5.50;99.90;;;;;;5008990;28;20871;-65
2022/11/14 05:45:47;;;;;;;8.73;7.83;;;5.60;99.90;;;;;;5009001;28;20785;-64
2022/11/14 05:48:13;;;;;;;8.80;6.80;;;5.40;99.90;;;;;;5011371;28;20218;-65
2022/11/14 05:50:39;;;;;;;8.60;7.50;;;5.50;99.90;;;;;;5018660;28;20674;-64
2022/11/14 05:53:04;;;;;;;8.20;7.40;;;5.60;99.90;;;;;;5007938;28;20981;-64
2022/11/14 05:55:30;;;;;;;9.43;8.13;;;5.20;99.90;;;;;;5007965;28;20554;-64
2022/11/14 05:57:59;;;;;;;7.17;6.47;;;5.50;99.90;;;;;;5011542;28;20202;-63
2022/11/14 06:00:25;;;;;;;8.32;7.53;;;5.70;99.90;;;;;;5008408;28;20308;-64
2022/11/14 06:02:52;;;;;;;8.45;7.10;;;5.50;99.90;;;;;;5006431;28;20735;-64
2022/11/14 06:05:19;;;;;;;9.57;8.02;;;5.60;99.90;;;;;;5009602;28;20203;-64
2022/11/14 06:07:45;;;;;;;8.18;7.38;;;5.80;99.90;;;;;;5007492;28;20297;-65
2022/11/14 06:10:12;;;;;;;8.23;6.90;;;5.70;99.90;;;;;;5011728;28;20175;-65
2022/11/14 06:12:38;;;;;;;8.00;7.20;;;5.80;99.90;;;;;;5010691;28;20729;-65
2022/11/14 06:15:04;;;;;;;8.10;7.30;;;5.50;99.90;;;;;;5011423;28;20544;-64
2022/11/14 06:17:29;;;;;;;7.80;6.80;;;5.80;99.90;;;;;;5005944;28;20432;-64
2022/11/14 06:19:55;;;;;;;7.77;7.00;;;5.70;99.90;;;;;;5009523;28;20236;-63
2022/11/14 06:22:21;;;;;;;8.30;7.40;;;5.70;99.90;;;;;;5008127;28;20563;-64
2022/11/14 06:24:46;;;;;;;7.50;6.60;;;6.20;99.90;;;;;;5008745;28;20182;-63
2022/11/14 06:27:12;;;;;;;8.73;7.83;;;5.80;99.90;;;;;;5008546;28;20222;-63
2022/11/14 06:29:38;;;;;;;8.63;7.73;;;5.90;99.90;;;;;;5008051;28;20281;-63
2022/11/14 06:32:03;;;;;;;8.73;7.20;;;6.00;99.90;;;;;;5008439;28;20206;-62
2022/11/14 06:34:29;;;;;;;8.70;7.40;;;6.00;99.90;;;;;;5006451;28;20274;-61
2022/11/14 06:36:55;;;;;;;8.87;8.07;;;6.10;99.90;;;;;;5001786;28;20473;-65
2022/11/14 06:39:20;;;;;;;8.80;7.90;;;6.20;99.90;;;;;;5007570;28;20186;-63
2022/11/14 06:41:46;;;;;;;8.23;7.33;;;6.30;99.90;;;;;;5008466;28;20261;-65
2022/11/14 06:44:13;;;;;;;7.43;6.73;;;6.40;99.90;;;;;;5004049;28;20179;-66
2022/11/14 06:46:39;;;;;;;7.43;6.65;;;6.50;99.90;;;;;;5021849;28;20608;-65
2022/11/14 06:49:05;;;;;;;7.43;6.63;;;6.50;99.90;;;;;;5007130;28;20263;-66
2022/11/14 06:51:31;;;;;;;7.23;6.53;;;6.30;99.90;;;;;;5007066;28;20193;-65
2022/11/14 06:53:57;;;;;;;7.20;6.28;;;6.70;99.90;;;;;;5005827;28;20199;-65
2022/11/14 06:56:23;;;;;;;7.13;5.95;;;6.60;99.90;;;;;;5007006;28;20822;-65
2022/11/14 06:58:49;;;;;;;6.27;5.70;;;6.50;99.90;;;;;;5009217;28;20207;-66
2022/11/14 07:01:16;;;;;;;9.45;6.40;;;6.70;99.90;;;;;;5004478;28;20364;-65
2022/11/14 07:03:43;;;;;;;6.47;5.70;;;6.60;99.90;;;;;;5007394;28;20253;-65
2022/11/14 07:06:12;;;;;;;7.90;7.10;;;6.90;99.90;;;;;;5006723;28;20187;-65
2022/11/14 07:08:38;;;;;;;6.53;5.63;;;6.60;99.90;;;;;;5007438;28;20454;-65
2022/11/14 07:11:06;;;;;;;8.57;6.13;;;7.10;99.90;;;;;;5002033;28;20195;-63
2022/11/14 07:13:33;;;;;;;6.25;5.57;;;7.30;99.90;;;;;;4999358;28;20191;-63
2022/11/14 07:15:59;;;;;;;6.50;5.90;;;7.10;99.90;;;;;;5010014;28;20183;-64
2022/11/14 07:18:25;;;;;;;7.82;6.38;;;7.30;99.90;;;;;;4998741;28;20562;-63
2022/11/14 07:20:57;;;;;;;6.70;6.00;;;7.40;99.90;;;;;;5004476;28;20203;-66
2022/11/14 07:23:23;;;;;;;6.53;5.90;;;7.40;99.90;;;;;;5000355;28;20877;-63
2022/11/14 07:25:49;;;;;;;7.93;6.50;;;7.70;99.90;;;;;;5005406;28;20198;-63
2022/11/14 07:28:14;;;;;;;10.90;6.27;;;7.30;99.90;;;;;;5008394;28;20229;-68
2022/11/14 07:30:40;;;;;;;7.50;5.73;;;7.40;99.90;;;;;;5002271;28;20186;-66
2022/11/14 07:33:06;;;;;;;7.00;6.30;;;7.50;99.90;;;;;;5010046;28;21085;-64
2022/11/14 07:35:32;;;;;;;8.70;6.93;;;7.40;99.90;;;;;;5002850;28;20500;-64
2022/11/14 07:38:02;;;;;;;8.90;7.10;;;7.60;99.90;;;;;;5002961;28;20187;-65
2022/11/14 07:40:28;;;;;;;9.75;6.30;;;7.70;99.90;;;;;;5005960;28;20274;-67
2022/11/14 07:42:59;;;;;;;6.87;6.20;;;7.40;99.90;;;;;;5001553;28;20298;-69
2022/11/14 07:45:24;;;;;;;9.57;7.30;;;7.40;99.90;;;;;;5005645;28;20424;-66
2022/11/14 07:47:56;;;;;;;7.87;6.80;;;7.20;99.90;;;;;;5011320;28;20210;-63
2022/11/14 07:50:22;;;;;;;7.68;6.85;;;7.40;99.90;;;;;;5014312;28;20480;-65
2022/11/14 07:52:52;;;;;;;7.50;6.07;;;7.20;99.90;;;;;;5012818;28;20225;-65
2022/11/14 07:55:19;;;;;;;7.78;6.97;;;7.10;99.90;;;;;;5012432;28;20186;-65
2022/11/14 07:57:45;;;;;;;7.90;7.10;;;7.20;99.90;;;;;;5012437;28;20195;-65
2022/11/14 08:00:11;;;;;;;10.90;7.72;;;7.30;99.90;;;;;;5012352;28;20186;-65
2022/11/14 08:02:38;;;;;;;8.63;6.15;;;7.40;99.90;;;;;;5011066;28;20237;-64
2022/11/14 08:05:04;;;;;;;9.10;8.10;;;7.60;99.90;;;;;;5009470;28;20195;-65
2022/11/14 08:07:30;;;;;;;8.03;6.73;;;7.50;99.90;;;;;;5014167;28;20353;-69
2022/11/14 08:09:55;;;;;;;12.93;8.70;;;7.60;99.90;;;;;;5008927;28;20428;-69
2022/11/14 08:12:21;;;;;;;12.90;10.67;;;7.60;99.90;;;;;;5002766;28;20471;-67
2022/11/14 08:14:46;;;;;;;7.53;6.77;;;7.50;99.90;;;;;;5011156;28;20186;-67
2022/11/14 08:17:12;;;;;;;8.30;6.70;;;7.60;99.90;;;;;;5006516;28;20183;-67
2022/11/14 08:19:38;;;;;;;11.80;8.80;;;7.80;99.90;;;;;;5009968;28;20186;-64
2022/11/14 08:22:03;;;;;;;10.70;7.40;;;7.80;99.90;;;;;;5008342;28;20257;-64
2022/11/14 08:24:29;;;;;;;8.20;6.87;;;8.10;99.90;;;;;;5019279;28;20194;-64
2022/11/14 08:26:55;;;;;;;14.73;8.80;;;8.00;99.90;;;;;;5009810;28;20222;-63
2022/11/14 08:29:20;;;;;;;7.77;6.97;;;8.10;99.90;;;;;;5007440;28;20194;-63
2022/11/14 08:31:46;;;;;;;6.93;6.23;;;8.40;99.90;;;;;;5011195;28;20555;-63
2022/11/14 08:34:12;;;;;;;6.53;4.70;;;8.30;99.90;;;;;;5011602;28;20649;-64
2022/11/14 08:36:37;;;;;;;5.33;4.83;;;8.40;99.90;;;;;;5006394;28;20193;-63
2022/11/14 08:39:03;;;;;;;6.93;5.70;;;8.50;99.90;;;;;;5009513;28;20502;-64
2022/11/14 08:41:29;;;;;;;6.07;5.37;;;8.80;99.90;;;;;;5010232;28;20179;-63
2022/11/14 08:43:54;;;;;;;5.83;5.00;;;8.80;99.90;;;;;;5009122;28;20694;-63
2022/11/14 08:46:20;;;;;;;6.20;4.90;;;8.50;99.90;;;;;;5005913;28;20195;-63
2022/11/14 08:48:46;;;;;;;5.70;5.00;;;8.90;99.90;;;;;;5007451;28;20214;-65
2022/11/14 08:51:12;;;;;;;6.07;4.60;;;9.00;99.90;;;;;;5008777;28;20447;-63
2022/11/14 08:53:37;;;;;;;6.03;4.70;;;9.00;99.90;;;;;;5011112;28;20465;-62
2022/11/14 08:56:03;;;;;;;5.83;5.20;;;8.90;99.90;;;;;;5012164;28;20201;-63
2022/11/14 08:58:30;;;;;;;4.57;4.13;;;9.00;99.90;;;;;;5020530;28;20646;-64
2022/11/14 09:01:04;;;;;;;5.75;4.40;;;8.90;99.90;;;;;;5005467;28;20795;-64
2022/11/14 09:03:29;;;;;;;3.67;3.38;;;9.20;99.90;;;;;;5008559;28;20213;-65
2022/11/14 09:05:55;;;;;;;6.50;5.37;;;9.20;99.90;;;;;;5003476;28;20195;-65
2022/11/14 09:08:21;;;;;;;4.70;4.23;;;9.10;99.90;;;;;;5008275;28;20207;-64
2022/11/14 09:10:47;;;;;;;7.10;6.40;;;9.10;99.90;;;;;;5010482;28;20265;-64
2022/11/14 09:13:13;;;;;;;4.35;3.95;;;9.10;99.90;;;;;;5015791;28;20743;-65
2022/11/14 09:15:38;;;;;;;4.20;3.80;;;9.20;99.90;;;;;;5020370;28;20189;-66
2022/11/14 09:18:04;;;;;;;5.00;4.43;;;9.30;99.90;;;;;;5010698;28;20230;-65
2022/11/14 09:20:30;;;;;;;6.50;4.17;;;9.30;99.90;;;;;;5010989;28;20190;-65
2022/11/14 09:22:59;;;;;;;5.53;4.97;;;9.40;99.90;;;;;;5010368;28;20292;-65
2022/11/14 09:25:25;;;;;;;3.15;2.85;;;9.60;99.90;;;;;;4997189;28;20443;-65
2022/11/14 09:27:52;;;;;;;2.90;2.60;;;9.60;99.90;;;;;;5015419;28;20260;-62
2022/11/14 09:30:17;;;;;;;3.80;2.63;;;9.70;99.90;;;;;;5011093;28;20669;-65
2022/11/14 09:32:43;;;;;;;3.67;3.20;;;9.70;99.90;;;;;;5007881;28;20234;-65
2022/11/14 09:35:09;;;;;;;3.00;2.60;;;9.70;99.90;;;;;;5004870;28;20553;-64
2022/11/14 09:37:34;;;;;;;4.83;3.67;;;9.80;99.90;;;;;;5006003;28;20190;-67
2022/11/14 09:40:00;;;;;;;3.93;2.50;;;9.80;99.90;;;;;;5009667;28;20636;-64
2022/11/14 09:43:01;;;;;;;2.30;2.10;;;10.00;99.90;;;;;;5011415;28;20209;-64
2022/11/14 09:45:28;;;;;;;4.10;2.35;;;10.10;99.90;;;;;;5003378;28;20752;-64
2022/11/14 09:48:03;;;;;;;3.90;3.30;;;10.30;99.90;;;;;;5003531;28;20289;-65
2022/11/14 09:50:33;;;;;;;2.20;2.03;;;10.50;99.90;;;;;;5007446;28;20191;-65
2022/11/14 09:53:13;;;;;;;3.53;2.55;;;10.20;99.90;;;;;;5003246;28;20527;-62
2022/11/14 09:55:39;;;;;;;2.30;2.10;;;10.60;99.90;;;;;;5001637;28;20548;-62
2022/11/14 09:58:11;;;;;;;4.47;2.83;;;10.70;99.90;;;;;;5010986;28;20203;-65
2022/11/14 10:00:55;;;;;;;4.35;3.35;;;11.10;99.90;;;;;;5002506;28;20220;-64
2022/11/14 10:03:39;;;;;;;4.00;3.17;;;11.20;99.90;;;;;;5002813;28;20351;-63
2022/11/14 10:06:06;;;;;;;2.08;1.70;;;11.40;99.90;;;;;;5009414;28;20188;-65
2022/11/14 10:09:07;;;;;;;3.20;2.83;;;11.30;99.90;;;;;;5010813;28;20674;-65
2022/11/14 10:11:41;;;;;;;2.53;2.33;;;11.50;99.90;;;;;;5008592;28;20186;-65
2022/11/14 10:14:44;;;;;;;3.38;2.20;;;11.50;99.90;;;;;;5010474;28;20665;-66
2022/11/14 10:17:22;;;;;;;6.22;3.50;;;11.70;99.90;;;;;;5003755;28;20237;-64
2022/11/14 10:20:02;;;;;;;2.80;2.60;;;11.70;99.90;;;;;;5006410;28;20712;-63
2022/11/14 10:22:54;;;;;;;3.13;2.38;;;12.30;99.90;;;;;;5010135;28;20698;-65
2022/11/14 10:25:22;;;;;;;3.03;2.42;;;12.40;99.90;;;;;;5004517;28;20195;-65
2022/11/14 10:28:15;;;;;;;6.28;3.10;;;12.50;99.90;;;;;;5003411;28;20221;-63
2022/11/14 10:31:19;;;;;;;2.17;2.00;;;12.70;99.90;;;;;;5001652;28;20179;-66
2022/11/14 10:34:11;;;;;;;3.70;3.22;;;12.80;99.90;;;;;;5006155;28;20210;-63
2022/11/14 10:37:01;;;;;;;4.15;2.80;;;12.60;99.90;;;;;;5005054;28;20191;-63
2022/11/14 10:39:39;;;;;;;2.92;2.47;;;12.60;99.90;;;;;;5005062;28;20186;-65
2022/11/14 10:42:13;;;;;;;3.08;2.75;;;12.50;99.90;;;;;;5004561;28;20202;-64
2022/11/14 10:45:20;;;;;;;3.80;3.35;;;12.60;99.90;;;;;;5005026;28;20255;-65
2022/11/14 10:47:56;;;;;;;2.92;2.72;;;12.60;99.90;;;;;;5005358;28;20237;-64
2022/11/14 10:50:27;;;;;;;3.30;3.00;;;12.10;99.90;;;;;;5006890;28;20198;-63
2022/11/14 10:52:59;;;;;;;3.47;3.10;;;12.40;99.90;;;;;;5005814;28;20226;-63
2022/11/14 10:55:25;;;;;;;3.85;3.10;;;12.40;99.90;;;;;;5004843;28;20236;-62
2022/11/14 10:57:51;;;;;;;3.27;2.97;;;12.70;99.90;;;;;;5004249;28;20202;-61
2022/11/14 11:00:23;;;;;;;3.90;3.60;;;12.60;99.90;;;;;;5020091;28;20456;-62
2022/11/14 11:02:53;;;;;;;4.38;3.63;;;12.40;99.90;;;;;;5005644;28;20457;-67
2022/11/14 11:05:22;;;;;;;5.60;3.08;;;12.50;99.90;;;;;;5001459;28;20204;-67
2022/11/14 11:13:34;;;;;;;3.85;3.45;;;12.70;99.90;;;;;;5007947;28;20218;-64
2022/11/14 11:16:03;;;;;;;4.13;2.60;;;13.00;99.90;;;;;;5000812;28;20217;-64
2022/11/14 11:18:33;;;;;;;3.30;2.92;;;13.30;99.90;;;;;;5004375;28;20178;-67
2022/11/14 11:21:05;;;;;;;3.10;2.72;;;13.40;99.90;;;;;;5004172;28;20186;-66
2022/11/14 11:23:32;;;;;;;2.60;2.40;;;13.10;99.90;;;;;;5002423;28;20746;-65
2022/11/14 11:26:19;;;;;;;3.90;3.00;;;13.00;99.90;;;;;;5001013;28;20680;-65
2022/11/14 11:29:09;;;;;;;3.20;2.92;;;13.20;99.90;;;;;;5009271;28;20258;-65
2022/11/14 11:32:01;;;;;;;3.90;3.45;;;13.10;99.90;;;;;;5005952;28;20218;-67
2022/11/14 11:34:30;;;;;;;4.30;3.90;;;13.60;99.90;;;;;;5001513;28;20187;-65
2022/11/14 11:37:12;;;;;;;3.85;3.45;;;13.60;99.90;;;;;;5006508;28;20183;-65
2022/11/14 11:39:49;;;;;;;1.75;1.65;;;13.40;99.90;;;;;;5006249;28;20182;-68
2022/11/14 11:42:23;;;;;;;2.20;1.98;;;13.50;99.90;;;;;;5002011;28;20213;-66
2022/11/14 11:44:57;;;;;;;1.95;1.58;;;13.50;99.90;;;;;;5002692;28;20198;-66
2022/11/14 11:47:25;;;;;;;4.63;2.45;;;13.70;99.90;;;;;;5003026;28;20313;-67
2022/11/14 11:49:52;;;;;;;1.73;1.50;;;13.60;99.90;;;;;;5008772;28;20744;-67
2022/11/14 11:52:31;;;;;;;2.97;1.80;;;13.40;99.90;;;;;;5011600;28;20216;-67
2022/11/14 11:55:03;;;;;;;2.25;2.05;;;13.60;99.90;;;;;;5025964;28;20552;-67
2022/11/14 11:57:43;;;;;;;4.43;2.40;;;13.40;99.90;;;;;;5014891;28;20292;-67
2022/11/14 12:00:16;;;;;;;4.90;2.00;;;13.50;99.90;;;;;;5025798;28;20693;-67
2022/11/14 12:02:46;;;;;;;1.75;1.50;;;13.60;99.90;;;;;;5029769;28;20217;-63
2022/11/14 12:05:35;;;;;;;1.60;1.50;;;13.40;99.90;;;;;;5014158;28;20378;-65
2022/11/14 12:08:12;;;;;;;1.90;1.73;;;13.50;99.90;;;;;;4997966;28;20226;-64
2022/11/14 12:10:40;;;;;;;2.53;2.20;;;13.30;99.90;;;;;;5002176;28;20187;-65
2022/11/14 12:13:15;;;;;;;1.80;1.70;;;13.40;99.90;;;;;;5003293;28;20210;-66
2022/11/14 12:16:11;;;;;;;1.75;1.65;;;13.60;99.90;;;;;;5005347;28;20193;-66
2022/11/14 12:18:50;;;;;;;1.70;1.60;;;13.30;99.90;;;;;;5006134;28;20233;-67
2022/11/14 12:21:25;;;;;;;2.10;1.60;;;13.70;99.90;;;;;;5005026;28;20591;-66
2022/11/14 12:24:29;;;;;;;3.33;1.70;;;13.50;99.90;;;;;;5006608;28;20297;-66
2022/11/14 12:26:55;;;;;;;2.15;1.80;;;14.00;99.90;;;;;;5006335;28;20187;-66
2022/11/14 12:29:49;;;;;;;3.00;2.40;;;14.00;99.90;;;;;;5008652;28;20506;-66
2022/11/14 12:32:30;;;;;;;7.32;3.85;;;13.80;99.90;;;;;;5007753;28;20210;-66
2022/11/14 12:34:57;;;;;;;4.95;4.53;;;13.90;99.90;;;;;;5007706;28;20274;-66
2022/11/14 12:37:41;;;;;;;3.20;2.90;;;14.10;99.90;;;;;;5009231;28;20282;-66
2022/11/14 12:40:28;;;;;;;3.67;3.10;;;14.10;99.90;;;;;;5009209;28;20199;-66
2022/11/14 12:42:56;;;;;;;2.40;2.20;;;14.40;99.90;;;;;;5007519;28;20238;-66
2022/11/14 12:45:42;;;;;;;2.42;2.20;;;14.30;99.90;;;;;;5009002;28;20580;-66
2022/11/14 12:48:20;;;;;;;2.47;2.28;;;14.00;99.90;;;;;;5005251;28;20733;-66
2022/11/14 12:50:46;;;;;;;1.50;1.40;;;14.40;99.90;;;;;;5009849;28;20187;-64
2022/11/14 12:53:36;;;;;;;3.28;2.85;;;14.10;99.90;;;;;;5010645;28;20205;-66
2022/11/14 12:56:39;;;;;;;3.65;1.98;;;14.40;99.90;;;;;;5004678;28;20202;-65
2022/11/14 12:59:29;;;;;;;1.92;1.80;;;14.40;99.90;;;;;;5005981;28;20190;-66
2022/11/14 13:02:36;;;;;;;1.60;1.50;;;14.30;99.90;;;;;;5007288;28;20642;-64
2022/11/14 13:05:28;;;;;;;2.65;2.15;;;14.20;99.90;;;;;;5002661;28;20202;-65
2022/11/14 13:08:48;;;;;;;2.20;2.10;;;14.30;99.90;;;;;;5009342;28;20222;-65